createdAt,value
2022-11-25T00:01:24.459Z,59.87
2022-11-25T00:03:53.654Z,59.49
2022-11-25T00:06:25.674Z,59.81
2022-11-25T00:09:05.183Z,60.37
2022-11-25T00:11:34.332Z,59.22
2022-11-25T00:14:00.960Z,59.65
2022-11-25T00:16:27.776Z,59.69
2022-11-25T00:18:56.607Z,59.18
2022-11-25T00:21:25.936Z,60.26
2022-11-25T00:23:54.548Z,61.44
2022-11-25T00:26:22.498Z,61.16
2022-11-25T00:28:50.012Z,61.70
2022-11-25T00:31:16.597Z,62.17
2022-11-25T00:33:43.866Z,60.62
2022-11-25T00:36:31.539Z,60.33
2022-11-25T00:39:12.293Z,59.34
2022-11-25T00:41:57.788Z,59.45
2022-11-25T00:44:37.317Z,59.89
2022-11-25T00:47:16.544Z,59.78
2022-11-25T00:49:51.745Z,61.23
2022-11-25T00:52:24.599Z,60.87
2022-11-25T00:54:52.929Z,60.04
2022-11-25T00:57:23.857Z,60.09
2022-11-25T00:59:50.928Z,59.58
2022-11-25T01:02:19.627Z,60.75
2022-11-25T01:04:47.541Z,60.61
2022-11-25T01:07:14.358Z,59.58
2022-11-25T01:09:41.087Z,60.45
2022-11-25T01:12:08.111Z,60.91
2022-11-25T01:14:35.231Z,60.93
2022-11-25T01:17:02.439Z,60.21
2022-11-25T01:19:29.121Z,59.26
2022-11-25T01:21:55.811Z,58.92
2022-11-25T01:24:24.094Z,59.54
2022-11-25T01:26:51.120Z,59.54
2022-11-25T01:29:19.223Z,60.58
2022-11-25T01:31:47.191Z,60.55
2022-11-25T01:34:17.138Z,59.67
2022-11-25T01:36:43.963Z,60.37
2022-11-25T01:39:18.937Z,59.38
2022-11-25T01:41:46.016Z,58.30
2022-11-25T01:44:21.896Z,58.67
2022-11-25T01:47:05.372Z,58.89
2022-11-25T01:49:41.903Z,57.87
2022-11-25T01:52:23.474Z,58.98
2022-11-25T01:55:10.418Z,56.96
2022-11-25T01:57:48.024Z,57.73
2022-11-25T02:00:15.663Z,58.80
2022-11-25T02:02:43.056Z,59.33
2022-11-25T02:05:13.462Z,59.24
2022-11-25T02:07:43.578Z,58.10
2022-11-25T02:10:18.209Z,57.04
2022-11-25T02:12:46.543Z,57.44
2022-11-25T02:15:14.908Z,57.47
2022-11-25T02:17:43.160Z,57.12
2022-11-25T02:20:18.284Z,57.32
2022-11-25T02:22:54.050Z,57.34
2022-11-25T02:25:27.180Z,57.44
2022-11-25T02:28:08.773Z,58.81
2022-11-25T02:30:35.526Z,58.62
2022-11-25T02:33:02.432Z,58.68
2022-11-25T02:35:43.483Z,58.77
2022-11-25T02:38:26.484Z,56.46
2022-11-25T02:41:06.173Z,56.10
2022-11-25T02:43:33.445Z,57.67
2022-11-25T02:46:04.349Z,56.68
2022-11-25T02:49:06.889Z,56.98
2022-11-25T02:51:23.868Z,56.69
2022-11-25T02:53:51.266Z,56.70
2022-11-25T02:56:19.193Z,56.58
2022-11-25T02:58:45.959Z,57.47
2022-11-25T03:01:12.885Z,56.98
2022-11-25T03:03:39.601Z,56.84
2022-11-25T03:06:06.713Z,57.44
2022-11-25T03:08:33.365Z,57.34
2022-11-25T03:11:00.091Z,58.39
2022-11-25T03:13:27.407Z,60.12
2022-11-25T03:15:54.097Z,59.02
2022-11-25T03:18:20.938Z,59.71
2022-11-25T03:20:47.608Z,59.23
2022-11-25T03:23:14.294Z,58.47
2022-11-25T03:25:40.940Z,59.28
2022-11-25T03:28:07.565Z,58.66
2022-11-25T03:30:34.460Z,59.14
2022-11-25T03:33:01.209Z,59.46
2022-11-25T03:35:28.547Z,60.50
2022-11-25T03:37:55.879Z,60.23
2022-11-25T03:40:22.901Z,61.03
2022-11-25T03:42:49.782Z,61.29
2022-11-25T03:45:17.026Z,62.13
2022-11-25T03:47:44.831Z,62.50
2022-11-25T03:50:13.821Z,62.97
2022-11-25T03:52:40.713Z,61.50
2022-11-25T03:55:08.314Z,61.80
2022-11-25T03:57:35.239Z,62.64
2022-11-25T04:00:02.164Z,61.12
2022-11-25T04:02:29.056Z,61.35
2022-11-25T04:04:55.701Z,61.31
2022-11-25T04:07:22.402Z,61.90
2022-11-25T04:09:49.140Z,60.05
2022-11-25T04:12:34.247Z,60.70
2022-11-25T04:15:00.817Z,62.33
2022-11-25T04:17:27.384Z,63.14
2022-11-25T04:19:53.980Z,61.98
2022-11-25T04:22:20.522Z,62.51
2022-11-25T04:24:47.271Z,62.70
2022-11-25T04:27:13.858Z,62.49
2022-11-25T04:29:40.533Z,61.09
2022-11-25T04:32:07.155Z,61.08
2022-11-25T04:34:34.028Z,60.38
2022-11-25T04:37:00.853Z,59.81
2022-11-25T04:39:27.453Z,60.85
2022-11-25T04:42:14.003Z,61.88
2022-11-25T04:44:40.692Z,62.37
2022-11-25T04:47:07.463Z,60.69
2022-11-25T04:49:34.080Z,61.75
2022-11-25T04:52:00.959Z,61.44
2022-11-25T04:54:27.577Z,60.75
2022-11-25T04:56:54.183Z,60.79
2022-11-25T04:59:39.562Z,61.40
2022-11-25T05:02:15.148Z,61.25
2022-11-25T05:04:43.608Z,61.19
2022-11-25T05:07:10.892Z,59.98
2022-11-25T05:09:37.986Z,61.10
2022-11-25T05:12:05.853Z,61.38
2022-11-25T05:14:32.827Z,61.26
2022-11-25T05:16:59.552Z,61.37
2022-11-25T05:19:26.302Z,60.31
2022-11-25T05:21:52.904Z,59.42
2022-11-25T05:24:19.530Z,59.16
2022-11-25T05:26:46.177Z,60.34
2022-11-25T05:29:12.817Z,60.64
2022-11-25T05:31:39.459Z,61.47
2022-11-25T05:34:06.095Z,60.95
2022-11-25T05:36:32.824Z,60.34
2022-11-25T05:39:00.452Z,60.01
2022-11-25T05:41:27.688Z,59.95
2022-11-25T05:43:54.656Z,59.70
2022-11-25T05:46:21.528Z,60.38
2022-11-25T05:48:48.224Z,60.61
2022-11-25T05:51:14.869Z,59.16
2022-11-25T05:53:41.451Z,59.73
2022-11-25T05:56:09.822Z,59.50
2022-11-25T05:58:36.497Z,60.10
2022-11-25T06:01:07.953Z,59.60
2022-11-25T06:03:35.092Z,60.75
2022-11-25T06:06:02.138Z,59.78
2022-11-25T06:08:28.975Z,59.73
2022-11-25T06:10:55.564Z,59.80
2022-11-25T06:13:22.379Z,59.31
2022-11-25T06:15:49.241Z,59.63
2022-11-25T06:18:17.377Z,60.17
2022-11-25T06:20:44.628Z,59.24
2022-11-25T06:23:11.357Z,58.65
2022-11-25T06:25:37.988Z,58.87
2022-11-25T06:28:12.890Z,57.74
2022-11-25T06:30:39.943Z,57.73
2022-11-25T06:33:06.613Z,58.96
2022-11-25T06:35:33.274Z,58.99
2022-11-25T06:38:00.116Z,58.80
2022-11-25T06:40:26.762Z,58.06
2022-11-25T06:42:53.448Z,58.42
2022-11-25T06:45:20.062Z,57.03
2022-11-25T06:47:46.658Z,57.42
2022-11-25T06:50:13.315Z,57.24
2022-11-25T06:52:39.929Z,58.52
2022-11-25T06:55:06.920Z,57.65
2022-11-25T06:57:33.583Z,56.63
2022-11-25T07:00:00.236Z,58.83
2022-11-25T07:02:26.968Z,58.71
2022-11-25T07:04:53.902Z,58.86
2022-11-25T07:07:20.624Z,57.92
2022-11-25T07:09:47.797Z,57.79
2022-11-25T07:12:14.656Z,57.27
2022-11-25T07:14:41.276Z,56.76
2022-11-25T07:17:11.944Z,56.44
2022-11-25T07:19:39.077Z,57.22
2022-11-25T07:22:05.715Z,57.27
2022-11-25T07:24:33.873Z,55.99
2022-11-25T07:27:00.744Z,56.61
2022-11-25T07:30:03.175Z,56.31
2022-11-25T07:32:14.616Z,55.51
2022-11-25T07:34:41.374Z,55.30
2022-11-25T07:37:08.261Z,54.85
2022-11-25T07:39:35.380Z,54.55
2022-11-25T07:42:02.270Z,54.84
2022-11-25T07:44:28.964Z,55.33
2022-11-25T07:46:55.713Z,54.24
2022-11-25T07:49:26.072Z,55.16
2022-11-25T07:51:59.790Z,56.72
2022-11-25T07:54:26.751Z,56.59
2022-11-25T07:56:53.710Z,55.84
2022-11-25T07:59:22.871Z,55.45
2022-11-25T08:01:51.347Z,55.46
2022-11-25T08:04:20.740Z,55.21
2022-11-25T08:06:49.460Z,56.24
2022-11-25T08:09:19.436Z,54.71
2022-11-25T08:11:47.161Z,55.43
2022-11-25T08:14:14.530Z,55.65
2022-11-25T08:16:41.243Z,55.52
2022-11-25T08:19:11.650Z,55.03
2022-11-25T08:21:38.304Z,54.99
2022-11-25T08:24:05.464Z,55.98
2022-11-25T08:26:36.505Z,55.84
2022-11-25T08:29:07.447Z,55.61
2022-11-25T08:31:37.707Z,54.73
2022-11-25T08:34:07.551Z,54.93
2022-11-25T08:36:35.505Z,55.45
2022-11-25T08:39:22.614Z,55.99
2022-11-25T08:41:52.453Z,55.72
2022-11-25T08:44:19.165Z,56.43
2022-11-25T08:46:45.809Z,56.47
2022-11-25T08:49:13.437Z,56.87
2022-11-25T08:51:40.367Z,56.47
2022-11-25T08:54:08.306Z,55.98
2022-11-25T08:56:35.444Z,56.02
2022-11-25T08:59:02.727Z,55.73
2022-11-25T09:01:29.725Z,54.90
2022-11-25T09:03:57.380Z,54.66
2022-11-25T09:06:27.518Z,54.07
2022-11-25T09:08:58.888Z,54.41
2022-11-25T09:11:26.057Z,55.31
2022-11-25T09:13:52.866Z,55.68
2022-11-25T09:16:20.866Z,54.76
2022-11-25T09:18:52.406Z,54.97
2022-11-25T09:21:22.211Z,55.75
2022-11-25T09:23:51.222Z,54.87
2022-11-25T09:26:39.647Z,55.10
2022-11-25T09:29:06.621Z,55.40
2022-11-25T09:31:33.234Z,56.08
2022-11-25T09:34:00.273Z,56.97
2022-11-25T09:36:26.923Z,56.33
2022-11-25T09:38:53.593Z,56.10
2022-11-25T09:42:23.649Z,55.03
2022-11-25T09:45:33.691Z,55.38
2022-11-25T09:48:34.190Z,55.61
2022-11-25T09:51:09.863Z,54.34
2022-11-25T09:53:43.766Z,54.44
2022-11-25T09:56:17.495Z,54.51
2022-11-25T09:58:59.646Z,55.38
2022-11-25T10:01:30.623Z,54.55
2022-11-25T10:04:05.357Z,54.78
2022-11-25T10:06:53.538Z,54.78
2022-11-25T10:09:26.044Z,55.57
2022-11-25T10:12:01.103Z,55.37
2022-11-25T10:14:53.053Z,55.99
2022-11-25T10:17:31.100Z,55.96
2022-11-25T10:20:05.576Z,54.94
2022-11-25T10:22:35.673Z,55.02
2022-11-25T10:25:13.083Z,54.17
2022-11-25T10:28:03.573Z,54.35
2022-11-25T10:31:01.134Z,54.69
2022-11-25T10:33:32.060Z,55.71
2022-11-25T10:36:14.426Z,55.55
2022-11-25T10:39:02.405Z,55.06
2022-11-25T10:41:33.314Z,54.64
2022-11-25T10:43:59.976Z,54.41
2022-11-25T10:47:12.130Z,54.80
2022-11-25T10:49:50.143Z,54.13
2022-11-25T10:52:23.341Z,53.98
2022-11-25T10:55:18.376Z,54.12
2022-11-25T10:57:45.091Z,55.02
2022-11-25T11:00:34.287Z,55.38
2022-11-25T11:03:15.049Z,55.96
2022-11-25T11:05:48.992Z,55.49
2022-11-25T11:08:22.319Z,56.99
2022-11-25T11:11:13.635Z,57.07
2022-11-25T11:13:40.722Z,56.56
2022-11-25T11:16:36.200Z,57.30
2022-11-25T11:19:04.350Z,56.62
2022-11-25T11:21:34.588Z,56.24
2022-11-25T11:24:02.309Z,56.60
2022-11-25T11:26:34.622Z,56.38
2022-11-25T11:29:07.365Z,56.75
2022-11-25T11:31:41.001Z,57.06
2022-11-25T11:34:26.633Z,56.21
2022-11-25T11:36:53.151Z,56.18
2022-11-25T11:39:35.431Z,55.78
2022-11-25T11:42:19.276Z,57.02
2022-11-25T11:44:51.754Z,57.27
2022-11-25T11:47:35.581Z,57.89
2022-11-25T11:50:26.353Z,56.38
2022-11-25T11:52:59.745Z,57.74
2022-11-25T11:55:35.280Z,58.43
2022-11-25T11:58:14.041Z,57.72
2022-11-25T12:00:56.172Z,57.05
2022-11-25T12:03:25.528Z,57.76
2022-11-25T12:05:55.921Z,58.28
2022-11-25T12:09:02.701Z,58.24
2022-11-25T12:11:40.406Z,58.49
2022-11-25T12:14:35.799Z,59.39
2022-11-25T12:17:12.135Z,59.06
2022-11-25T12:19:55.190Z,59.30
2022-11-25T12:22:46.568Z,57.48
2022-11-25T12:25:35.606Z,56.22
2022-11-25T12:28:12.878Z,56.11
2022-11-25T12:31:04.792Z,57.30
2022-11-25T12:33:51.141Z,55.69
2022-11-25T12:36:39.278Z,56.80
2022-11-25T12:39:28.908Z,57.48
2022-11-25T12:41:59.996Z,57.07
2022-11-25T12:44:35.791Z,57.33
2022-11-25T12:47:02.676Z,57.15
2022-11-25T12:49:32.782Z,57.50
2022-11-25T12:52:18.215Z,56.73
2022-11-25T12:54:44.816Z,57.19
2022-11-25T12:57:19.578Z,57.40
2022-11-25T13:00:01.645Z,57.93
2022-11-25T13:03:13.709Z,58.73
2022-11-25T13:05:49.658Z,57.66
2022-11-25T13:08:37.071Z,56.47
2022-11-25T13:11:41.337Z,56.95
2022-11-25T13:14:20.487Z,56.54
2022-11-25T13:16:49.739Z,57.73
2022-11-25T13:19:19.297Z,57.56
2022-11-25T13:22:01.283Z,56.58
2022-11-25T13:24:40.588Z,56.03
2022-11-25T13:27:52.958Z,56.94
2022-11-25T13:30:31.919Z,57.12
2022-11-25T13:33:18.867Z,57.30
2022-11-25T13:36:08.003Z,56.39
2022-11-25T13:38:58.173Z,57.48
2022-11-25T13:41:33.199Z,56.82
2022-11-25T13:44:14.923Z,57.11
2022-11-25T13:46:47.960Z,57.16
2022-11-25T13:49:31.609Z,56.68
2022-11-25T13:52:03.170Z,56.22
2022-11-25T13:54:45.637Z,55.46
2022-11-25T13:57:12.144Z,55.02
2022-11-25T13:59:51.250Z,55.38
2022-11-25T14:02:29.874Z,56.11
2022-11-25T14:05:30.218Z,56.07
2022-11-25T14:08:17.914Z,55.97
2022-11-25T14:10:46.074Z,56.28
2022-11-25T14:13:46.548Z,56.06
2022-11-25T14:16:43.562Z,55.94
2022-11-25T14:22:31.924Z,56.58
2022-11-25T14:25:19.146Z,56.69
2022-11-25T14:27:52.416Z,57.05
2022-11-25T14:30:19.698Z,57.01
2022-11-25T14:33:11.518Z,57.31
2022-11-25T14:35:47.161Z,57.25
2022-11-25T14:38:19.668Z,55.53
2022-11-25T14:41:08.437Z,56.39
2022-11-25T14:43:45.508Z,56.29
2022-11-25T14:46:20.708Z,54.80
2022-11-25T14:48:55.024Z,55.10
2022-11-25T14:51:22.781Z,55.10
2022-11-25T14:53:51.306Z,55.16
2022-11-25T14:56:31.204Z,55.56
2022-11-25T14:58:59.246Z,55.70
2022-11-25T15:01:34.596Z,56.07
2022-11-25T15:04:13.449Z,55.57
2022-11-25T15:06:42.821Z,56.14
2022-11-25T15:09:30.258Z,55.52
2022-11-25T15:12:02.718Z,55.39
2022-11-25T15:14:33.982Z,55.60
2022-11-25T15:17:06.612Z,54.79
2022-11-25T15:19:36.169Z,54.06
2022-11-25T15:22:23.484Z,55.09
2022-11-25T15:24:55.396Z,54.34
2022-11-25T15:27:27.827Z,55.88
2022-11-25T15:29:57.317Z,55.18
2022-11-25T15:32:29.849Z,55.87
2022-11-25T15:35:00.260Z,55.24
2022-11-25T15:37:28.339Z,56.47
2022-11-25T15:40:56.997Z,56.18
2022-11-25T15:43:29.938Z,55.24
2022-11-25T15:46:00.548Z,54.78
2022-11-25T15:48:40.417Z,55.74
2022-11-25T15:51:43.962Z,56.19
2022-11-25T15:54:37.181Z,55.01
2022-11-25T15:57:16.772Z,54.98
2022-11-25T15:59:51.594Z,55.14
2022-11-25T16:02:47.251Z,55.03
2022-11-25T16:05:14.127Z,55.96
2022-11-25T16:07:49.810Z,55.52
2022-11-25T16:10:50.778Z,55.10
2022-11-25T16:13:22.033Z,55.33
2022-11-25T16:15:56.538Z,55.47
2022-11-25T16:18:46.662Z,56.72
2022-11-25T16:21:21.134Z,55.06
2022-11-25T16:23:51.846Z,55.03
2022-11-25T16:26:25.729Z,55.46
2022-11-25T16:28:58.166Z,55.48
2022-11-25T16:31:28.691Z,56.22
2022-11-25T16:34:02.145Z,55.93
2022-11-25T16:36:28.760Z,57.10
2022-11-25T16:38:55.407Z,56.87
2022-11-25T16:41:25.394Z,57.15
2022-11-25T16:43:52.101Z,56.51
2022-11-25T16:46:20.100Z,56.10
2022-11-25T16:48:47.405Z,56.29
2022-11-25T16:51:17.128Z,56.08
2022-11-25T16:53:44.482Z,56.33
2022-11-25T16:56:26.829Z,55.39
2022-11-25T16:58:54.807Z,56.26
2022-11-25T17:01:24.663Z,55.68
2022-11-25T17:03:51.607Z,55.92
2022-11-25T17:06:22.351Z,55.45
2022-11-25T17:08:50.545Z,55.81
2022-11-25T17:11:28.287Z,54.68
2022-11-25T17:13:56.429Z,55.42
2022-11-25T17:16:26.590Z,57.20
2022-11-25T17:18:55.301Z,57.25
2022-11-25T17:21:26.928Z,57.86
2022-11-25T17:24:11.266Z,57.88
2022-11-25T17:26:40.602Z,57.18
2022-11-25T17:29:13.450Z,57.01
2022-11-25T17:31:41.113Z,58.16
2022-11-25T17:34:13.444Z,56.83
2022-11-25T17:36:40.275Z,57.32
2022-11-25T17:39:07.108Z,56.80
2022-11-25T17:41:39.803Z,57.72
2022-11-25T17:44:09.308Z,57.22
2022-11-25T17:46:35.860Z,57.62
2022-11-25T17:49:02.491Z,56.29
2022-11-25T17:51:29.129Z,56.11
2022-11-25T17:53:55.722Z,56.97
2022-11-25T17:56:30.102Z,56.79
2022-11-25T17:59:02.314Z,57.63
2022-11-25T18:01:28.985Z,56.64
2022-11-25T18:03:55.873Z,55.68
2022-11-25T18:06:23.271Z,56.18
2022-11-25T18:08:50.023Z,56.66
2022-11-25T18:11:18.826Z,57.89
2022-11-25T18:13:47.785Z,56.90
2022-11-25T18:16:18.097Z,56.57
2022-11-25T18:18:44.903Z,55.82
2022-11-25T18:21:11.917Z,57.34
2022-11-25T18:23:38.507Z,58.05
2022-11-25T18:26:05.551Z,56.79
2022-11-25T18:28:32.835Z,55.51
2022-11-25T18:31:04.565Z,56.12
2022-11-25T18:33:31.626Z,55.60
2022-11-25T18:35:58.377Z,54.99
2022-11-25T18:38:28.267Z,55.82
2022-11-25T18:40:58.787Z,55.95
2022-11-25T18:43:30.303Z,55.84
2022-11-25T18:45:57.270Z,57.44
2022-11-25T18:48:26.265Z,55.86
2022-11-25T18:50:56.148Z,55.08
2022-11-25T18:53:23.635Z,55.71
2022-11-25T18:55:50.597Z,55.65
2022-11-25T18:58:27.121Z,55.11
2022-11-25T19:00:59.199Z,55.33
2022-11-25T19:03:26.514Z,54.76
2022-11-25T19:05:59.404Z,54.27
2022-11-25T19:08:25.997Z,55.06
2022-11-25T19:10:52.799Z,54.77
2022-11-25T19:13:26.316Z,56.55
2022-11-25T19:15:53.683Z,56.37
2022-11-25T19:18:25.666Z,56.26
2022-11-25T19:20:52.640Z,55.47
2022-11-25T19:23:30.945Z,54.67
2022-11-25T19:26:11.551Z,54.77
2022-11-25T19:28:38.310Z,55.10
2022-11-25T19:31:05.904Z,54.31
2022-11-25T19:33:38.981Z,55.68
2022-11-25T19:36:06.749Z,56.35
2022-11-25T19:38:34.926Z,55.94
2022-11-25T19:41:01.744Z,55.97
2022-11-25T19:43:28.405Z,56.32
2022-11-25T19:45:57.029Z,55.71
2022-11-25T19:48:27.132Z,55.80
2022-11-25T19:50:59.605Z,55.52
2022-11-25T19:53:33.232Z,55.01
2022-11-25T19:56:04.126Z,55.90
2022-11-25T19:58:31.240Z,55.40
2022-11-25T20:01:02.378Z,56.29
2022-11-25T20:03:31.002Z,57.85
2022-11-25T20:05:58.341Z,57.19
2022-11-25T20:08:27.375Z,57.51
2022-11-25T20:10:55.176Z,57.32
2022-11-25T20:13:23.494Z,57.54
2022-11-25T20:15:50.804Z,57.56
2022-11-25T20:18:22.369Z,57.29
2022-11-25T20:20:56.014Z,57.65
2022-11-25T20:23:43.657Z,57.70
2022-11-25T20:26:38.347Z,58.80
2022-11-25T20:29:19.166Z,58.96
2022-11-25T20:31:46.963Z,57.67
2022-11-25T20:34:14.185Z,57.46
2022-11-25T20:36:43.185Z,57.72
2022-11-25T20:39:17.693Z,58.02
2022-11-25T20:41:48.812Z,56.51
2022-11-25T20:44:15.480Z,56.51
2022-11-25T20:46:42.076Z,56.05
2022-11-25T20:49:23.666Z,55.64
2022-11-25T20:51:50.419Z,55.39
2022-11-25T20:54:17.783Z,54.86
2022-11-25T20:56:44.464Z,55.45
2022-11-25T20:59:20.388Z,54.94
2022-11-25T21:01:47.761Z,55.12
2022-11-25T21:04:14.456Z,55.07
2022-11-25T21:06:41.454Z,54.75
2022-11-25T21:09:16.525Z,54.05
2022-11-25T21:11:43.265Z,54.44
2022-11-25T21:14:18.185Z,54.41
2022-11-25T21:16:45.615Z,54.83
2022-11-25T21:19:12.498Z,55.13
2022-11-25T21:21:45.364Z,55.70
2022-11-25T21:24:32.237Z,54.88
2022-11-25T21:27:01.997Z,55.43
2022-11-25T21:29:29.854Z,57.18
2022-11-25T21:31:56.591Z,56.87
2022-11-25T21:34:23.383Z,56.18
2022-11-25T21:36:52.916Z,55.61
2022-11-25T21:39:27.908Z,55.97
2022-11-25T21:41:55.079Z,57.18
2022-11-25T21:44:28.744Z,57.17
2022-11-25T21:46:55.769Z,57.77
2022-11-25T21:49:24.138Z,58.47
2022-11-25T21:51:50.824Z,58.58
2022-11-25T21:54:17.496Z,56.40
2022-11-25T21:56:44.831Z,55.24
2022-11-25T21:59:18.595Z,56.89
2022-11-25T22:01:45.967Z,56.85
2022-11-25T22:04:15.677Z,55.59
2022-11-25T22:06:42.821Z,55.29
2022-11-25T22:09:10.496Z,54.95
2022-11-25T22:11:45.510Z,55.15
2022-11-25T22:14:18.648Z,54.96
2022-11-25T22:16:45.411Z,55.68
2022-11-25T22:19:22.836Z,55.14
2022-11-25T22:21:49.510Z,54.76
2022-11-25T22:24:17.357Z,55.46
2022-11-25T22:26:46.601Z,55.93
2022-11-25T22:29:15.410Z,55.40
2022-11-25T22:31:42.813Z,55.42
2022-11-25T22:34:20.846Z,55.25
2022-11-25T22:36:48.679Z,55.46
2022-11-25T22:39:16.851Z,55.60
2022-11-25T22:41:46.035Z,55.59
2022-11-25T22:44:19.483Z,54.67
2022-11-25T22:46:47.207Z,53.67
2022-11-25T22:49:28.901Z,54.70
2022-11-25T22:51:56.437Z,54.69
2022-11-25T22:54:23.661Z,55.07
2022-11-25T22:56:50.700Z,56.65
2022-11-25T22:59:17.300Z,56.11
2022-11-25T23:01:44.205Z,54.70
2022-11-25T23:04:20.506Z,55.52
2022-11-25T23:06:47.612Z,55.26
2022-11-25T23:09:17.123Z,54.97
2022-11-25T23:11:44.832Z,54.33
2022-11-25T23:14:12.123Z,54.04
2022-11-25T23:16:40.875Z,53.76
2022-11-25T23:19:18.321Z,54.62
2022-11-25T23:21:45.732Z,53.84
2022-11-25T23:24:15.501Z,54.35
2022-11-25T23:26:43.406Z,54.78
2022-11-25T23:29:10.165Z,54.17
2022-11-25T23:31:38.945Z,54.25
2022-11-25T23:34:07.399Z,53.69
2022-11-25T23:36:42.641Z,54.65
2022-11-25T23:39:21.681Z,55.62
2022-11-25T23:41:48.984Z,55.94
2022-11-25T23:44:22.705Z,54.68
2022-11-25T23:46:49.895Z,54.18
2022-11-25T23:49:20.563Z,55.64
2022-11-25T23:51:47.456Z,55.72
2022-11-25T23:54:16.810Z,55.48
2022-11-25T23:56:43.448Z,55.15
2022-11-25T23:59:13.821Z,57.17
